createdAt,value
2017-04-16T00:00:02.152Z,0
2017-04-16T00:01:11.553Z,0
2017-04-16T00:02:20.582Z,0
2017-04-16T00:03:29.966Z,0
2017-04-16T00:04:39.342Z,0
2017-04-16T00:05:48.113Z,0
2017-04-16T00:06:57.188Z,0
2017-04-16T00:08:07.128Z,0
2017-04-16T00:09:16.629Z,0
2017-04-16T00:10:25.411Z,0
2017-04-16T00:11:34.696Z,0
2017-04-16T00:12:43.774Z,0
2017-04-16T00:13:52.867Z,0
2017-04-16T00:15:01.936Z,0
2017-04-16T00:16:11.009Z,0
2017-04-16T00:17:19.780Z,0
2017-04-16T00:18:28.554Z,0
2017-04-16T00:19:37.323Z,0
2017-04-16T00:20:46.657Z,0
2017-04-16T00:21:55.723Z,0
2017-04-16T00:23:04.498Z,0
2017-04-16T00:24:13.887Z,0
2017-04-16T00:25:22.665Z,0
2017-04-16T00:26:31.692Z,0
2017-04-16T00:27:40.765Z,0
2017-04-16T00:28:49.845Z,0
2017-04-16T00:29:58.629Z,0
2017-04-16T00:31:08.316Z,0
2017-04-16T00:32:17.385Z,0
2017-04-16T00:33:26.150Z,0
2017-04-16T00:34:35.230Z,0
2017-04-16T00:35:44.621Z,0
2017-04-16T00:36:54.013Z,0
2017-04-16T00:38:02.795Z,0
2017-04-16T00:39:12.185Z,0
2017-04-16T00:40:21.584Z,0
2017-04-16T00:41:30.304Z,0
2017-04-16T00:42:39.637Z,0
2017-04-16T00:43:49.004Z,0
2017-04-16T00:44:58.407Z,0
2017-04-16T00:46:07.773Z,0
2017-04-16T00:47:16.832Z,0
2017-04-16T00:48:26.164Z,0
2017-04-16T00:49:35.312Z,0
2017-04-16T00:50:45.001Z,0
2017-04-16T00:51:54.498Z,0
2017-04-16T00:53:03.873Z,0
2017-04-16T00:54:12.652Z,0
2017-04-16T00:55:22.371Z,0
2017-04-16T00:56:31.446Z,0
2017-04-16T00:57:40.523Z,0
2017-04-16T00:58:50.210Z,0
2017-04-16T01:00:00.211Z,0
2017-04-16T01:01:08.935Z,0
2017-04-16T01:02:17.990Z,0
2017-04-16T01:03:27.381Z,0
2017-04-16T01:04:36.156Z,0
2017-04-16T01:05:44.924Z,0
2017-04-16T01:06:54.012Z,0
2017-04-16T01:08:02.787Z,0
2017-04-16T01:09:12.172Z,0
2017-04-16T01:10:21.264Z,0
2017-04-16T01:11:30.290Z,0
2017-04-16T01:12:39.358Z,0
2017-04-16T01:13:48.764Z,0
2017-04-16T01:14:57.735Z,0
2017-04-16T01:16:07.166Z,0
2017-04-16T01:17:16.242Z,0
2017-04-16T01:18:25.316Z,0
2017-04-16T01:19:34.342Z,0
2017-04-16T01:20:43.111Z,0
2017-04-16T01:21:52.500Z,0
2017-04-16T01:23:01.259Z,0
2017-04-16T01:24:10.663Z,0
2017-04-16T01:25:19.443Z,0
2017-04-16T01:26:29.132Z,0
2017-04-16T01:27:38.216Z,0
2017-04-16T01:28:47.601Z,0
2017-04-16T01:29:56.676Z,0
2017-04-16T01:31:06.362Z,0
2017-04-16T01:32:16.046Z,0
2017-04-16T01:33:25.373Z,0
2017-04-16T01:34:34.891Z,0
2017-04-16T01:35:43.969Z,0
2017-04-16T01:36:53.964Z,0
2017-04-16T01:38:03.655Z,0
2017-04-16T01:39:13.026Z,0
2017-04-16T01:40:22.110Z,0
2017-04-16T01:41:30.890Z,0
2017-04-16T01:42:39.662Z,0
2017-04-16T01:43:49.355Z,0
2017-04-16T01:44:58.738Z,0
2017-04-16T01:46:08.103Z,0
2017-04-16T01:47:17.169Z,0
2017-04-16T01:48:26.245Z,0
2017-04-16T01:49:35.630Z,0
2017-04-16T01:50:44.944Z,0
2017-04-16T01:51:53.712Z,0
2017-04-16T01:53:02.785Z,0
2017-04-16T01:54:12.478Z,0
2017-04-16T01:55:21.564Z,0
2017-04-16T01:56:30.278Z,0
2017-04-16T01:57:39.034Z,0
2017-04-16T01:58:49.034Z,0
2017-04-16T01:59:58.415Z,0
2017-04-16T02:01:07.206Z,0
2017-04-16T02:02:16.589Z,0
2017-04-16T02:03:25.367Z,0
2017-04-16T02:04:34.757Z,0
2017-04-16T02:05:43.826Z,0
2017-04-16T02:06:52.600Z,0
2017-04-16T02:08:01.687Z,0
2017-04-16T02:09:10.771Z,0
2017-04-16T02:10:19.796Z,0
2017-04-16T02:11:28.501Z,0
2017-04-16T02:12:37.563Z,0
2017-04-16T02:13:46.642Z,0
2017-04-16T02:14:55.720Z,0
2017-04-16T02:16:04.804Z,0
2017-04-16T02:17:14.022Z,0
2017-04-16T02:18:22.926Z,0
2017-04-16T02:19:32.618Z,0
2017-04-16T02:20:41.677Z,0
2017-04-16T02:21:50.460Z,0
2017-04-16T02:22:59.540Z,0
2017-04-16T02:24:08.472Z,0
2017-04-16T02:25:17.848Z,0
2017-04-16T02:26:26.923Z,0
2017-04-16T02:27:35.985Z,0
2017-04-16T02:28:45.677Z,0
2017-04-16T02:29:54.957Z,0
2017-04-16T02:31:03.733Z,0
2017-04-16T02:32:13.070Z,0
2017-04-16T02:33:21.822Z,0
2017-04-16T02:34:31.204Z,0
2017-04-16T02:35:39.980Z,0
2017-04-16T02:36:48.746Z,0
2017-04-16T02:37:57.802Z,0
2017-04-16T02:39:07.334Z,0
2017-04-16T02:40:16.717Z,0
2017-04-16T02:41:25.784Z,0
2017-04-16T02:42:34.872Z,0
2017-04-16T02:43:44.244Z,0
2017-04-16T02:44:53.572Z,0
2017-04-16T02:46:02.327Z,0
2017-04-16T02:47:11.400Z,0
2017-04-16T02:48:20.484Z,0
2017-04-16T02:49:29.874Z,0
2017-04-16T02:50:38.947Z,0
2017-04-16T02:51:48.287Z,0
2017-04-16T02:52:57.603Z,0
2017-04-16T02:54:06.664Z,0
2017-04-16T02:55:15.737Z,0
2017-04-16T02:56:24.444Z,0
2017-04-16T02:57:33.778Z,0
2017-04-16T02:58:43.134Z,0
2017-04-16T02:59:52.501Z,0
2017-04-16T03:01:01.573Z,0
2017-04-16T03:02:10.340Z,0
2017-04-16T03:03:19.388Z,0
2017-04-16T03:04:28.455Z,0
2017-04-16T03:05:37.774Z,0
2017-04-16T03:06:46.542Z,0
2017-04-16T03:07:55.491Z,0
2017-04-16T03:09:04.999Z,0
2017-04-16T03:10:13.925Z,0
2017-04-16T03:11:22.632Z,0
2017-04-16T03:12:31.657Z,0
2017-04-16T03:13:41.777Z,0
2017-04-16T03:14:50.831Z,0
2017-04-16T03:16:00.498Z,0
2017-04-16T03:17:09.570Z,0
2017-04-16T03:18:18.638Z,0
2017-04-16T03:19:27.676Z,0
2017-04-16T03:20:36.736Z,0
2017-04-16T03:21:45.453Z,0
2017-04-16T03:22:55.016Z,0
2017-04-16T03:24:04.026Z,0
2017-04-16T03:25:12.770Z,0
2017-04-16T03:26:21.535Z,0
2017-04-16T03:27:30.294Z,0
2017-04-16T03:28:40.268Z,0
2017-04-16T03:29:49.351Z,0
2017-04-16T03:30:58.423Z,0
2017-04-16T03:32:07.179Z,0
2017-04-16T03:33:16.259Z,0
2017-04-16T03:34:26.135Z,0
2017-04-16T03:35:35.207Z,0
2017-04-16T03:36:43.967Z,0
2017-04-16T03:37:53.343Z,0
2017-04-16T03:39:02.360Z,0
2017-04-16T03:40:11.732Z,0
2017-04-16T03:41:21.095Z,0
2017-04-16T03:42:29.860Z,0
2017-04-16T03:43:39.237Z,0
2017-04-16T03:44:48.255Z,0
2017-04-16T03:45:56.997Z,0
2017-04-16T03:47:05.764Z,0
2017-04-16T03:48:14.965Z,0
2017-04-16T03:49:24.038Z,0
2017-04-16T03:50:32.797Z,0
2017-04-16T03:51:41.555Z,0
2017-04-16T03:52:51.236Z,0
2017-04-16T03:54:00.615Z,0
2017-04-16T03:55:09.633Z,0
2017-04-16T03:56:18.679Z,0
2017-04-16T03:57:27.751Z,0
2017-04-16T03:58:37.137Z,0
2017-04-16T03:59:46.820Z,0
2017-04-16T04:00:55.885Z,0
2017-04-16T04:02:04.742Z,0
2017-04-16T04:03:14.316Z,0
2017-04-16T04:04:23.685Z,0
2017-04-16T04:05:33.089Z,0
2017-04-16T04:06:41.856Z,0
2017-04-16T04:07:51.517Z,0
2017-04-16T04:09:00.573Z,0
2017-04-16T04:10:09.637Z,0
2017-04-16T04:11:18.396Z,0
2017-04-16T04:12:27.177Z,0
2017-04-16T04:13:36.497Z,0
2017-04-16T04:14:45.794Z,0
2017-04-16T04:15:54.851Z,4
2017-04-16T04:17:04.713Z,0
2017-04-16T04:18:14.384Z,0
2017-04-16T04:19:23.761Z,4
2017-04-16T04:20:32.833Z,4
2017-04-16T04:21:41.598Z,4
2017-04-16T04:22:50.969Z,4
2017-04-16T04:24:00.640Z,4
2017-04-16T04:25:09.399Z,4
2017-04-16T04:26:18.141Z,8
2017-04-16T04:27:27.167Z,4
2017-04-16T04:28:35.921Z,8
2017-04-16T04:29:44.943Z,12
2017-04-16T04:30:53.990Z,12
2017-04-16T04:32:02.755Z,12
2017-04-16T04:33:11.821Z,16
2017-04-16T04:34:21.186Z,16
2017-04-16T04:35:30.558Z,20
2017-04-16T04:36:39.664Z,16
2017-04-16T04:37:49.046Z,20
2017-04-16T04:38:58.411Z,24
2017-04-16T04:40:07.113Z,32
2017-04-16T04:41:16.193Z,32
2017-04-16T04:42:25.539Z,28
2017-04-16T04:43:34.900Z,28
2017-04-16T04:44:44.275Z,28
2017-04-16T04:45:53.339Z,24
2017-04-16T04:47:02.097Z,20
2017-04-16T04:48:11.479Z,24
2017-04-16T04:49:20.254Z,28
2017-04-16T04:50:29.622Z,32
2017-04-16T04:51:38.687Z,40
2017-04-16T04:52:47.751Z,48
2017-04-16T04:53:56.808Z,52
2017-04-16T04:55:05.512Z,52
2017-04-16T04:56:14.574Z,52
2017-04-16T04:57:23.651Z,56
2017-04-16T04:58:32.707Z,56
2017-04-16T04:59:42.226Z,52
2017-04-16T05:00:50.989Z,44
2017-04-16T05:02:00.245Z,40
2017-04-16T05:03:09.626Z,36
2017-04-16T05:04:18.739Z,36
2017-04-16T05:05:27.844Z,44
2017-04-16T05:06:36.889Z,56
2017-04-16T05:07:46.503Z,68
2017-04-16T05:08:55.260Z,84
2017-04-16T05:10:05.244Z,100
2017-04-16T05:11:14.617Z,112
2017-04-16T05:12:23.992Z,116
2017-04-16T05:13:33.668Z,116
2017-04-16T05:14:42.738Z,120
2017-04-16T05:15:52.109Z,132
2017-04-16T05:17:00.867Z,152
2017-04-16T05:18:09.637Z,152
2017-04-16T05:19:19.312Z,164
2017-04-16T05:20:28.690Z,164
2017-04-16T05:21:37.457Z,148
2017-04-16T05:22:46.532Z,144
2017-04-16T05:23:56.205Z,140
2017-04-16T05:25:05.298Z,140
2017-04-16T05:26:14.056Z,148
2017-04-16T05:27:23.746Z,184
2017-04-16T05:28:32.807Z,212
2017-04-16T05:29:41.872Z,248
2017-04-16T05:30:50.921Z,264
2017-04-16T05:31:59.681Z,276
2017-04-16T05:33:08.698Z,284
2017-04-16T05:34:18.027Z,308
2017-04-16T05:35:27.383Z,332
2017-04-16T05:36:36.157Z,356
2017-04-16T05:37:45.843Z,376
2017-04-16T05:38:54.865Z,388
2017-04-16T05:40:03.929Z,412
2017-04-16T05:41:12.978Z,440
2017-04-16T05:42:21.728Z,468
2017-04-16T05:43:30.815Z,492
2017-04-16T05:44:40.788Z,512
2017-04-16T05:45:49.500Z,552
2017-04-16T05:46:58.556Z,584
2017-04-16T05:48:08.242Z,608
2017-04-16T05:49:17.007Z,604
2017-04-16T05:50:25.763Z,640
2017-04-16T05:51:34.818Z,588
2017-04-16T05:52:43.819Z,580
2017-04-16T05:53:53.177Z,632
2017-04-16T05:55:02.251Z,664
2017-04-16T05:56:11.729Z,660
2017-04-16T05:57:20.770Z,620
2017-04-16T05:58:30.207Z,588
2017-04-16T05:59:39.580Z,596
2017-04-16T06:00:48.707Z,580
2017-04-16T06:01:57.671Z,540
2017-04-16T06:03:07.170Z,548
2017-04-16T06:04:16.444Z,564
2017-04-16T06:05:25.503Z,564
2017-04-16T06:06:34.635Z,536
2017-04-16T06:07:43.703Z,532
2017-04-16T06:08:53.085Z,532
2017-04-16T06:10:02.156Z,528
2017-04-16T06:11:11.630Z,520
2017-04-16T06:12:20.398Z,504
2017-04-16T06:13:29.158Z,508
2017-04-16T06:14:38.181Z,512
2017-04-16T06:15:47.219Z,556
2017-04-16T06:16:55.979Z,616
2017-04-16T06:18:05.004Z,624
2017-04-16T06:19:14.360Z,640
2017-04-16T06:20:23.329Z,624
2017-04-16T06:21:32.084Z,588
2017-04-16T06:22:41.158Z,588
2017-04-16T06:23:50.776Z,536
2017-04-16T06:24:59.822Z,492
2017-04-16T06:26:08.593Z,536
2017-04-16T06:27:17.973Z,556
2017-04-16T06:28:27.353Z,536
2017-04-16T06:29:36.426Z,496
2017-04-16T06:30:45.481Z,492
2017-04-16T06:31:54.797Z,484
2017-04-16T06:33:04.155Z,472
2017-04-16T06:34:12.933Z,440
2017-04-16T06:35:21.947Z,416
2017-04-16T06:36:30.694Z,416
2017-04-16T06:37:39.770Z,412
2017-04-16T06:38:49.094Z,404
2017-04-16T06:39:58.472Z,424
2017-04-16T06:41:07.236Z,444
2017-04-16T06:42:16.317Z,552
2017-04-16T06:43:25.384Z,528
2017-04-16T06:44:34.139Z,568
2017-04-16T06:45:43.206Z,636
2017-04-16T06:46:52.294Z,740
2017-04-16T06:48:01.663Z,696
2017-04-16T06:49:10.737Z,556
2017-04-16T06:50:20.424Z,516
2017-04-16T06:51:29.189Z,500
2017-04-16T06:52:37.896Z,632
2017-04-16T06:53:47.578Z,624
2017-04-16T06:54:57.269Z,628
2017-04-16T06:56:06.286Z,536
2017-04-16T06:57:15.033Z,524
2017-04-16T06:58:24.655Z,548
2017-04-16T06:59:34.015Z,556
2017-04-16T07:00:43.395Z,496
2017-04-16T07:01:52.152Z,528
2017-04-16T07:03:01.163Z,476
2017-04-16T07:04:10.291Z,488
2017-04-16T07:05:19.975Z,476
2017-04-16T07:06:29.350Z,464
2017-04-16T07:07:38.368Z,552
2017-04-16T07:08:47.730Z,656
2017-04-16T07:09:56.792Z,564
2017-04-16T07:11:05.858Z,600
2017-04-16T07:12:14.722Z,548
2017-04-16T07:13:23.519Z,496
2017-04-16T07:14:32.601Z,512
2017-04-16T07:15:41.687Z,652
2017-04-16T07:16:50.700Z,720
2017-04-16T07:18:00.377Z,640
2017-04-16T07:19:10.044Z,632
2017-04-16T07:20:18.809Z,612
2017-04-16T07:21:27.578Z,596
2017-04-16T07:22:36.642Z,652
2017-04-16T07:23:45.855Z,856
2017-04-16T07:24:55.550Z,992
2017-04-16T07:26:04.627Z,976
2017-04-16T07:27:13.757Z,804
2017-04-16T07:28:23.451Z,832
2017-04-16T07:29:32.539Z,636
2017-04-16T07:30:41.769Z,664
2017-04-16T07:31:51.007Z,624
2017-04-16T07:33:00.978Z,504
2017-04-16T07:34:10.056Z,528
2017-04-16T07:35:19.071Z,480
2017-04-16T07:36:27.824Z,612
2017-04-16T07:37:36.887Z,444
2017-04-16T07:38:46.561Z,332
2017-04-16T07:39:55.934Z,352
2017-04-16T07:41:05.307Z,380
2017-04-16T07:42:14.371Z,484
2017-04-16T07:43:23.690Z,584
2017-04-16T07:44:32.748Z,596
2017-04-16T07:45:41.825Z,756
2017-04-16T07:46:50.601Z,1376
2017-04-16T07:47:59.674Z,1328
2017-04-16T07:49:08.986Z,1628
2017-04-16T07:50:17.724Z,792
2017-04-16T07:51:26.498Z,876
2017-04-16T07:52:35.883Z,1536
2017-04-16T07:53:44.963Z,2456
2017-04-16T07:54:54.650Z,2528
2017-04-16T07:56:03.706Z,1920
2017-04-16T07:57:12.408Z,1764
2017-04-16T07:58:21.466Z,1660
2017-04-16T07:59:31.147Z,2496
2017-04-16T08:00:40.405Z,1864
2017-04-16T08:01:49.181Z,1324
2017-04-16T08:02:58.254Z,1684
2017-04-16T08:04:07.631Z,1120
2017-04-16T08:05:16.395Z,1788
2017-04-16T08:06:25.129Z,1728
2017-04-16T08:07:34.205Z,1728
2017-04-16T08:08:43.580Z,2352
2017-04-16T08:09:52.636Z,2432
2017-04-16T08:11:01.607Z,2980
2017-04-16T08:12:10.319Z,2332
2017-04-16T08:13:19.685Z,2760
2017-04-16T08:14:29.053Z,2328
2017-04-16T08:15:37.819Z,2776
2017-04-16T08:16:46.837Z,2076
2017-04-16T08:17:55.891Z,3012
2017-04-16T08:19:05.565Z,2124
2017-04-16T08:20:14.887Z,2880
2017-04-16T08:21:23.635Z,3284
2017-04-16T08:22:32.404Z,1852
2017-04-16T08:23:41.166Z,2704
2017-04-16T08:24:49.935Z,3008
2017-04-16T08:25:59.315Z,2784
2017-04-16T08:27:08.387Z,3548
2017-04-16T08:28:17.762Z,3656
2017-04-16T08:29:26.833Z,1976
2017-04-16T08:30:36.218Z,1544
2017-04-16T08:31:44.978Z,1272
2017-04-16T08:32:54.049Z,2656
2017-04-16T08:34:02.822Z,2688
2017-04-16T08:35:11.705Z,2392
2017-04-16T08:36:20.478Z,1412
2017-04-16T08:37:29.249Z,2024
2017-04-16T08:38:38.016Z,1716
2017-04-16T08:39:47.385Z,3908
2017-04-16T08:40:56.765Z,1820
2017-04-16T08:42:06.592Z,1312
2017-04-16T08:43:15.294Z,2268
2017-04-16T08:44:24.296Z,4348
2017-04-16T08:45:33.350Z,2912
2017-04-16T08:46:42.105Z,4816
2017-04-16T08:47:50.864Z,1532
2017-04-16T08:48:59.945Z,2864
2017-04-16T08:50:09.046Z,1520
2017-04-16T08:51:18.430Z,980
2017-04-16T08:52:27.183Z,808
2017-04-16T08:53:36.805Z,1104
2017-04-16T08:54:45.898Z,1132
2017-04-16T08:55:55.911Z,1416
2017-04-16T08:57:04.708Z,1932
2017-04-16T08:58:13.782Z,1748
2017-04-16T08:59:23.541Z,2016
2017-04-16T09:00:32.627Z,3692
2017-04-16T09:01:41.541Z,3772
2017-04-16T09:02:50.613Z,3612
2017-04-16T09:04:00.295Z,1816
2017-04-16T09:05:09.063Z,1184
2017-04-16T09:06:18.129Z,900
2017-04-16T09:07:27.796Z,716
2017-04-16T09:08:37.179Z,624
2017-04-16T09:09:46.256Z,656
2017-04-16T09:10:55.325Z,744
2017-04-16T09:12:04.076Z,840
2017-04-16T09:13:12.837Z,1112
2017-04-16T09:14:21.921Z,1680
2017-04-16T09:15:30.982Z,1952
2017-04-16T09:16:40.053Z,2004
2017-04-16T09:17:49.367Z,3608
2017-04-16T09:18:58.724Z,5244
2017-04-16T09:20:07.989Z,7768
2017-04-16T09:21:17.366Z,14236
2017-04-16T09:22:26.708Z,11024
2017-04-16T09:23:35.765Z,2656
2017-04-16T09:24:45.477Z,1072
2017-04-16T09:25:54.249Z,1588
2017-04-16T09:27:03.326Z,1364
2017-04-16T09:28:12.084Z,1452
2017-04-16T09:29:21.457Z,1504
2017-04-16T09:30:30.161Z,1196
2017-04-16T09:31:39.155Z,1096
2017-04-16T09:32:48.202Z,1312
2017-04-16T09:33:57.877Z,1356
2017-04-16T09:35:06.950Z,1336
2017-04-16T09:36:15.725Z,1492
2017-04-16T09:37:24.513Z,1736
2017-04-16T09:38:33.277Z,1996
2017-04-16T09:39:42.647Z,2296
2017-04-16T09:40:52.026Z,2304
2017-04-16T09:42:00.986Z,2024
2017-04-16T09:43:10.055Z,1792
2017-04-16T09:44:19.129Z,1392
2017-04-16T09:45:28.495Z,1308
2017-04-16T09:46:37.264Z,972
2017-04-16T09:47:46.025Z,756
2017-04-16T09:48:55.099Z,660
2017-04-16T09:50:04.475Z,604
2017-04-16T09:51:13.248Z,388
2017-04-16T09:52:22.264Z,240
2017-04-16T09:53:31.328Z,232
2017-04-16T09:54:40.103Z,244
2017-04-16T09:55:49.431Z,300
2017-04-16T09:56:58.209Z,420
2017-04-16T09:58:07.399Z,432
2017-04-16T09:59:16.578Z,336
2017-04-16T10:00:25.937Z,344
2017-04-16T10:01:35.092Z,308
2017-04-16T10:02:44.316Z,320
2017-04-16T10:03:53.674Z,364
2017-04-16T10:05:02.775Z,536
2017-04-16T10:06:12.182Z,568
2017-04-16T10:07:21.261Z,540
2017-04-16T10:08:30.979Z,428
2017-04-16T10:09:40.055Z,304
2017-04-16T10:10:48.771Z,304
2017-04-16T10:11:57.821Z,300
2017-04-16T10:13:06.788Z,320
2017-04-16T10:14:15.545Z,304
2017-04-16T10:15:24.920Z,424
2017-04-16T10:16:33.985Z,680
2017-04-16T10:17:43.376Z,884
2017-04-16T10:18:52.965Z,1204
2017-04-16T10:20:02.345Z,1640
2017-04-16T10:21:11.105Z,3704
2017-04-16T10:22:20.490Z,1328
2017-04-16T10:23:29.247Z,1784
2017-04-16T10:24:38.529Z,11372
2017-04-16T10:25:47.598Z,2752
2017-04-16T10:26:56.673Z,6820
2017-04-16T10:28:06.033Z,3084
2017-04-16T10:29:15.108Z,2100
2017-04-16T10:30:24.186Z,1400
2017-04-16T10:31:32.943Z,1060
2017-04-16T10:32:42.022Z,704
2017-04-16T10:33:52.018Z,524
2017-04-16T10:35:00.772Z,496
2017-04-16T10:36:10.191Z,680
2017-04-16T10:37:19.356Z,752
2017-04-16T10:38:28.125Z,920
2017-04-16T10:39:36.891Z,1900
2017-04-16T10:40:45.655Z,3676
2017-04-16T10:41:54.726Z,4628
2017-04-16T10:43:03.791Z,4544
2017-04-16T10:44:12.550Z,2840
2017-04-16T10:45:21.914Z,2616
2017-04-16T10:46:30.937Z,7152
2017-04-16T10:47:40.299Z,12300
2017-04-16T10:48:49.986Z,14036
2017-04-16T10:49:59.074Z,15280
2017-04-16T10:51:08.145Z,17920
2017-04-16T10:52:17.102Z,20320
2017-04-16T10:53:26.115Z,21408
2017-04-16T10:54:34.864Z,23264
2017-04-16T10:55:44.330Z,25696
2017-04-16T10:56:53.283Z,28672
2017-04-16T10:58:02.359Z,28768
2017-04-16T10:59:12.759Z,31616
2017-04-16T11:00:21.761Z,27808
2017-04-16T11:01:30.690Z,28800
2017-04-16T11:02:39.770Z,29920
2017-04-16T11:03:48.843Z,29024
2017-04-16T11:04:58.778Z,32352
2017-04-16T11:06:08.137Z,33056
2017-04-16T11:07:16.891Z,38176
2017-04-16T11:08:25.954Z,5332
2017-04-16T11:09:34.971Z,3176
2017-04-16T11:10:43.738Z,2424
2017-04-16T11:11:52.503Z,2140
2017-04-16T11:13:02.191Z,1920
2017-04-16T11:14:10.926Z,1660
2017-04-16T11:15:20.288Z,1512
2017-04-16T11:16:29.064Z,1400
2017-04-16T11:17:38.458Z,1276
2017-04-16T11:18:48.446Z,1056
2017-04-16T11:19:57.529Z,824
2017-04-16T11:21:06.298Z,676
2017-04-16T11:22:15.417Z,528
2017-04-16T11:23:24.804Z,396
2017-04-16T11:24:33.570Z,388
2017-04-16T11:25:42.276Z,444
2017-04-16T11:26:51.588Z,440
2017-04-16T11:28:00.947Z,384
2017-04-16T11:29:10.279Z,324
2017-04-16T11:30:19.571Z,592
2017-04-16T11:31:28.333Z,572
2017-04-16T11:32:37.656Z,372
2017-04-16T11:33:46.729Z,252
2017-04-16T11:34:56.422Z,224
2017-04-16T11:36:05.996Z,192
2017-04-16T11:37:14.768Z,148
2017-04-16T11:38:24.334Z,116
2017-04-16T11:39:33.092Z,112
2017-04-16T11:40:41.858Z,140
2017-04-16T11:41:50.919Z,196
2017-04-16T11:43:00.306Z,212
2017-04-16T11:44:09.335Z,208
2017-04-16T11:45:18.100Z,200
2017-04-16T11:46:26.861Z,200
2017-04-16T11:47:36.545Z,236
2017-04-16T11:48:45.922Z,216
2017-04-16T11:49:55.616Z,228
2017-04-16T11:51:04.858Z,252
2017-04-16T11:52:14.173Z,260
2017-04-16T11:53:23.044Z,284
2017-04-16T11:54:32.739Z,268
2017-04-16T11:55:41.471Z,300
2017-04-16T11:56:50.356Z,240
2017-04-16T11:57:59.421Z,188
2017-04-16T11:59:08.224Z,176
2017-04-16T12:00:17.807Z,188
2017-04-16T12:01:27.461Z,160
2017-04-16T12:02:36.212Z,168
2017-04-16T12:03:45.596Z,196
2017-04-16T12:04:54.366Z,216
2017-04-16T12:06:04.040Z,240
2017-04-16T12:07:13.107Z,280
2017-04-16T12:08:21.889Z,384
2017-04-16T12:09:30.965Z,536
2017-04-16T12:10:40.026Z,624
2017-04-16T12:11:48.738Z,672
2017-04-16T12:12:57.806Z,852
2017-04-16T12:14:07.191Z,1004
2017-04-16T12:15:16.257Z,1016
2017-04-16T12:16:25.585Z,1324
2017-04-16T12:17:34.636Z,1796
2017-04-16T12:18:44.019Z,1944
2017-04-16T12:19:52.783Z,1224
2017-04-16T12:21:02.165Z,884
2017-04-16T12:22:11.842Z,464
2017-04-16T12:23:20.773Z,248
2017-04-16T12:24:30.471Z,236
2017-04-16T12:25:39.187Z,308
2017-04-16T12:26:47.933Z,276
2017-04-16T12:27:57.255Z,260
2017-04-16T12:29:06.568Z,284
2017-04-16T12:30:16.181Z,420
2017-04-16T12:31:25.240Z,848
2017-04-16T12:32:34.174Z,1036
2017-04-16T12:33:43.265Z,1108
2017-04-16T12:34:52.339Z,1116
2017-04-16T12:36:01.408Z,1272
2017-04-16T12:37:10.480Z,1352
2017-04-16T12:38:19.853Z,1228
2017-04-16T12:39:29.243Z,1316
2017-04-16T12:40:38.618Z,1808
2017-04-16T12:41:47.333Z,2116
2017-04-16T12:42:56.688Z,2100
2017-04-16T12:44:06.315Z,2032
2017-04-16T12:45:15.980Z,1832
2017-04-16T12:46:25.348Z,1724
2017-04-16T12:47:34.374Z,1708
2017-04-16T12:48:43.753Z,2048
2017-04-16T12:49:53.079Z,2108
2017-04-16T12:51:02.308Z,2044
2017-04-16T12:52:11.457Z,1960
2017-04-16T12:53:20.731Z,2056
2017-04-16T12:54:30.237Z,2104
2017-04-16T12:55:39.080Z,2376
2017-04-16T12:56:48.463Z,2536
2017-04-16T12:57:57.527Z,2408
2017-04-16T12:59:06.595Z,2628
2017-04-16T13:00:15.986Z,2456
2017-04-16T13:01:24.742Z,2644
2017-04-16T13:02:33.507Z,2664
2017-04-16T13:03:43.073Z,2200
2017-04-16T13:04:52.705Z,1872
2017-04-16T13:06:01.445Z,1440
2017-04-16T13:07:10.521Z,876
2017-04-16T13:08:20.195Z,592
2017-04-16T13:09:29.514Z,564
2017-04-16T13:10:38.218Z,652
2017-04-16T13:11:47.273Z,580
2017-04-16T13:12:56.966Z,508
2017-04-16T13:14:06.060Z,408
2017-04-16T13:15:15.381Z,480
2017-04-16T13:16:24.444Z,716
2017-04-16T13:17:33.214Z,912
2017-04-16T13:18:42.289Z,1048
2017-04-16T13:19:51.007Z,1140
2017-04-16T13:20:59.767Z,1276
2017-04-16T13:22:08.554Z,1408
2017-04-16T13:23:17.943Z,1644
2017-04-16T13:24:26.754Z,1908
2017-04-16T13:25:35.517Z,1736
2017-04-16T13:26:44.592Z,1480
2017-04-16T13:27:53.667Z,1052
2017-04-16T13:29:02.736Z,1048
2017-04-16T13:30:11.444Z,1188
2017-04-16T13:31:20.195Z,1356
2017-04-16T13:32:28.914Z,1484
2017-04-16T13:33:37.966Z,1508
2017-04-16T13:34:47.356Z,1812
2017-04-16T13:35:56.323Z,1976
2017-04-16T13:37:05.037Z,1852
2017-04-16T13:38:14.718Z,1464
2017-04-16T13:39:24.077Z,1124
2017-04-16T13:40:32.826Z,852
2017-04-16T13:41:41.896Z,616
2017-04-16T13:42:50.967Z,652
2017-04-16T13:44:00.649Z,544
2017-04-16T13:45:09.388Z,492
2017-04-16T13:46:18.134Z,552
2017-04-16T13:47:27.209Z,496
2017-04-16T13:48:36.604Z,396
2017-04-16T13:49:46.220Z,424
2017-04-16T13:50:55.899Z,536
2017-04-16T13:52:04.974Z,812
2017-04-16T13:53:13.682Z,1060
2017-04-16T13:54:22.516Z,1180
2017-04-16T13:55:31.762Z,1152
2017-04-16T13:56:40.831Z,1240
2017-04-16T13:57:50.178Z,1168
2017-04-16T13:58:59.237Z,1348
2017-04-16T14:00:08.309Z,1464
2017-04-16T14:01:17.068Z,1528
2017-04-16T14:02:26.160Z,1612
2017-04-16T14:03:35.236Z,1652
2017-04-16T14:04:43.946Z,1752
2017-04-16T14:05:52.701Z,1912
2017-04-16T14:07:01.720Z,1852
2017-04-16T14:08:10.764Z,1736
2017-04-16T14:09:19.844Z,1616
2017-04-16T14:10:29.529Z,1068
2017-04-16T14:11:38.601Z,1048
2017-04-16T14:12:48.584Z,1540
2017-04-16T14:13:58.262Z,1452
2017-04-16T14:15:07.585Z,988
2017-04-16T14:16:16.642Z,512
2017-04-16T14:17:25.718Z,748
2017-04-16T14:18:35.290Z,1016
2017-04-16T14:19:44.064Z,788
2017-04-16T14:20:53.135Z,736
2017-04-16T14:22:01.843Z,608
2017-04-16T14:23:11.787Z,692
2017-04-16T14:24:20.794Z,620
2017-04-16T14:25:30.157Z,768
2017-04-16T14:26:38.932Z,748
2017-04-16T14:27:47.948Z,804
2017-04-16T14:28:57.311Z,820
2017-04-16T14:30:06.378Z,876
2017-04-16T14:31:15.143Z,888
2017-04-16T14:32:24.515Z,828
2017-04-16T14:33:33.271Z,852
2017-04-16T14:34:42.285Z,744
2017-04-16T14:35:51.335Z,684
2017-04-16T14:37:00.403Z,728
2017-04-16T14:38:09.162Z,756
2017-04-16T14:39:18.532Z,768
2017-04-16T14:40:27.544Z,780
2017-04-16T14:41:36.553Z,712
2017-04-16T14:42:46.118Z,676
2017-04-16T14:43:54.885Z,624
2017-04-16T14:45:03.647Z,712
2017-04-16T14:46:12.411Z,920
2017-04-16T14:47:22.096Z,992
2017-04-16T14:48:31.722Z,976
2017-04-16T14:49:41.378Z,892
2017-04-16T14:50:50.154Z,880
2017-04-16T14:52:00.080Z,704
2017-04-16T14:53:09.072Z,744
2017-04-16T14:54:17.906Z,872
2017-04-16T14:55:27.252Z,864
2017-04-16T14:56:36.295Z,784
2017-04-16T14:57:45.201Z,688
2017-04-16T14:58:54.299Z,680
2017-04-16T15:00:03.671Z,804
2017-04-16T15:01:12.432Z,796
2017-04-16T15:02:21.776Z,708
2017-04-16T15:03:30.835Z,624
2017-04-16T15:04:40.220Z,572
2017-04-16T15:05:49.306Z,532
2017-04-16T15:06:58.682Z,504
2017-04-16T15:08:08.053Z,520
2017-04-16T15:09:17.994Z,560
2017-04-16T15:10:26.758Z,568
2017-04-16T15:11:36.140Z,608
2017-04-16T15:12:45.543Z,632
2017-04-16T15:13:54.615Z,652
2017-04-16T15:15:03.693Z,632
2017-04-16T15:16:12.757Z,692
2017-04-16T15:17:21.531Z,764
2017-04-16T15:18:31.202Z,796
2017-04-16T15:19:40.914Z,800
2017-04-16T15:20:49.689Z,804
2017-04-16T15:21:59.054Z,804
2017-04-16T15:23:07.830Z,788
2017-04-16T15:24:17.493Z,792
2017-04-16T15:25:26.868Z,832
2017-04-16T15:26:35.596Z,892
2017-04-16T15:27:45.203Z,928
2017-04-16T15:28:54.561Z,876
2017-04-16T15:30:04.245Z,988
2017-04-16T15:31:13.266Z,1004
2017-04-16T15:32:22.431Z,980
2017-04-16T15:33:31.513Z,988
2017-04-16T15:34:40.838Z,976
2017-04-16T15:35:49.602Z,992
2017-04-16T15:36:58.369Z,988
2017-04-16T15:38:07.436Z,1020
2017-04-16T15:39:16.160Z,1048
2017-04-16T15:40:25.214Z,1064
2017-04-16T15:41:33.985Z,1020
2017-04-16T15:42:43.258Z,1024
2017-04-16T15:43:52.625Z,1008
2017-04-16T15:45:02.628Z,964
2017-04-16T15:46:11.699Z,960
2017-04-16T15:47:21.014Z,960
2017-04-16T15:48:30.075Z,1004
2017-04-16T15:49:40.271Z,960
2017-04-16T15:50:49.342Z,932
2017-04-16T15:51:58.109Z,944
2017-04-16T15:53:06.817Z,904
2017-04-16T15:54:16.478Z,792
2017-04-16T15:55:25.484Z,752
2017-04-16T15:56:34.906Z,564
2017-04-16T15:57:44.282Z,400
2017-04-16T15:58:53.656Z,344
2017-04-16T16:00:03.332Z,396
2017-04-16T16:01:12.218Z,540